< < Back
Terminal Aerodrome Forecast


Current Version              Previous Versions:   1  2  3  4  5  6  7  8  9  

Terminal Aerodrome Forecast

455
FTUS42 KILM 260520
TAFFLO
TAF
KFLO 260520Z 2606/2706 09007KT P6SM BKN025
     FM260900 07005KT P6SM BKN015
     FM261400 09007KT P6SM VCSH SCT025 BKN050
     FM270100 12004KT P6SM SCT020 BKN120=

Latest METAR

731
SAUS70 KWBC 260900 RRA
MTRFLO
METAR KFLO 260853Z AUTO 09006KT 10SM SCT038 BKN055 21/19 A3009 RMK AO2
SLP187 T02110189 56008


USA.gov is the U.S. government's official web portal to all federal, state and local government web resources and services.